Time;durP1;ratioP1;P1;durP2;ratioP2;P2;SDS_P1;SDS_P2;PMS_P1;PMS_P2;Temp;Humidity;BMP_temperature;BMP_pressure;BME280_temperature;BME280_humidity;BME280_pressure;Samples;Min_cycle;Max_cycle;Signal;HPM_P1;HPM_P2
2023/12/01 00:01:05;;;;;;;;;;;;;;;3.94;68.86;96344.00;5108634;28;19931;-74
2023/12/01 00:03:54;;;;;;;;;;;;;;;4.10;68.39;96366.72;5113739;28;20002;-75
2023/12/01 00:06:42;;;;;;;;;;;;;;;4.21;67.72;96361.91;5113873;28;19923;-75
2023/12/01 00:09:32;;;;;;;;;;;;;;;4.19;67.69;96364.09;5105934;28;19926;-74
2023/12/01 00:12:20;;;;;;;;;;;;;;;4.09;68.02;96375.09;5115737;28;19927;-76
2023/12/01 00:15:08;;;;;;;;;;;;;;;3.96;68.78;96384.81;5107959;28;20022;-75
2023/12/01 00:17:57;;;;;;;;;;;;;;;4.10;68.12;96393.59;5118597;28;19919;-76
2023/12/01 00:20:46;;;;;;;;;;;;;;;4.01;67.87;96390.06;5124803;28;19928;-75
2023/12/01 00:23:34;;;;;;;;;;;;;;;4.02;68.13;96382.78;5119271;28;20392;-74
2023/12/01 00:26:22;;;;;;;;;;;;;;;4.06;68.12;96384.56;5102253;28;20016;-74
2023/12/01 00:29:17;;;;;;;;;;;;;;;3.65;69.63;96364.03;5107555;27;19928;-73
2023/12/01 00:32:05;;;;;;;;;;;;;;;3.88;68.30;96361.34;5089093;28;20068;-74
2023/12/01 00:34:53;;;;;;;;;;;;;;;4.01;68.11;96362.41;5091398;28;19927;-74
2023/12/01 00:37:43;;;;;;;;;;;;;;;3.79;68.72;96347.09;5090331;28;20414;-75
2023/12/01 00:40:31;;;;;;;;;;;;;;;3.70;69.56;96338.97;5081437;28;19985;-74
2023/12/01 00:43:19;;;;;;;;;;;;;;;3.82;69.43;96351.84;5086184;28;20049;-75
2023/12/01 00:46:07;;;;;;;;;;;;;;;3.59;69.29;96340.31;5084541;28;19920;-75
2023/12/01 00:48:55;;;;;;;;;;;;;;;3.30;70.64;96346.03;5086772;28;19970;-74
2023/12/01 00:51:45;;;;;;;;;;;;;;;3.14;71.11;96357.13;5085644;28;19936;-75
2023/12/01 00:54:41;;;;;;;;;;;;;;;3.43;70.15;96366.69;5071494;28;20068;-75
2023/12/01 00:57:29;;;;;;;;;;;;;;;3.27;70.80;96363.56;5085562;28;19920;-75
2023/12/01 01:00:18;;;;;;;;;;;;;;;3.48;69.84;96358.53;5093960;28;19994;-74
2023/12/01 01:03:09;;;;;;;;;;;;;;;3.36;70.53;96355.59;5088392;28;19920;-74
2023/12/01 01:05:57;;;;;;;;;;;;;;;2.91;72.20;96336.69;5084288;28;19955;-71
2023/12/01 01:08:45;;;;;;;;;;;;;;;3.36;70.70;96339.50;5082266;28;19928;-75
2023/12/01 01:11:35;;;;;;;;;;;;;;;3.48;70.14;96337.06;5084828;28;19935;-72
2023/12/01 01:14:23;;;;;;;;;;;;;;;3.64;69.86;96340.97;5089809;28;20297;-72
2023/12/01 01:17:11;;;;;;;;;;;;;;;3.59;69.80;96349.16;5072716;28;20391;-72
2023/12/01 01:19:59;;;;;;;;;;;;;;;3.89;69.14;96352.22;5086552;28;19927;-73
2023/12/01 01:22:47;;;;;;;;;;;;;;;3.88;68.84;96354.09;5085722;28;19927;-75
2023/12/01 01:25:35;;;;;;;;;;;;;;;4.09;68.19;96350.91;5083241;28;19920;-72
2023/12/01 01:28:25;;;;;;;;;;;;;;;4.02;68.45;96350.53;5085604;28;19928;-73
2023/12/01 01:31:13;;;;;;;;;;;;;;;4.01;68.43;96347.06;5105207;28;19972;-75
2023/12/01 01:34:01;;;;;;;;;;;;;;;4.03;68.89;96362.88;5108457;28;19941;-75
2023/12/01 01:36:50;;;;;;;;;;;;;;;2.95;72.52;96350.31;5108452;28;19919;-72
2023/12/01 01:39:38;;;;;;;;;;;;;;;3.02;72.02;96350.69;5106446;28;20373;-72
2023/12/01 01:42:26;;;;;;;;;;;;;;;3.39;71.23;96354.97;5119683;27;19932;-72
2023/12/01 01:45:16;;;;;;;;;;;;;;;3.56;70.41;96357.78;5100940;28;19928;-72
2023/12/01 01:48:04;;;;;;;;;;;;;;;3.60;70.39;96366.84;5088674;28;20018;-72
2023/12/01 01:50:53;;;;;;;;;;;;;;;3.79;69.67;96374.75;5103877;28;19932;-74
2023/12/01 01:53:42;;;;;;;;;;;;;;;3.58;69.26;96361.00;5087889;28;20384;-75
2023/12/01 01:56:30;;;;;;;;;;;;;;;3.61;69.42;96363.06;5109639;28;19966;-72
2023/12/01 01:59:20;;;;;;;;;;;;;;;3.35;70.54;96354.78;5116342;27;19919;-73
2023/12/01 02:02:09;;;;;;;;;;;;;;;3.57;70.19;96351.34;5119318;27;19920;-74
2023/12/01 02:04:57;;;;;;;;;;;;;;;3.72;69.50;96357.44;5092982;28;20010;-75
2023/12/01 02:07:45;;;;;;;;;;;;;;;3.74;69.52;96364.13;5090586;28;20010;-75
2023/12/01 02:10:34;;;;;;;;;;;;;;;3.89;68.60;96373.72;5106464;28;19932;-75
2023/12/01 02:13:23;;;;;;;;;;;;;;;4.12;68.55;96351.09;5094043;28;19927;-75
2023/12/01 02:16:11;;;;;;;;;;;;;;;4.00;68.52;96325.88;5087651;28;19943;-73
2023/12/01 02:19:01;;;;;;;;;;;;;;;3.97;68.45;96339.94;5120918;27;19927;-73
2023/12/01 02:21:51;;;;;;;;;;;;;;;4.07;68.26;96353.09;5108124;28;19962;-73
2023/12/01 02:24:39;;;;;;;;;;;;;;;4.12;67.60;96345.72;5105965;28;19920;-73
2023/12/01 02:27:28;;;;;;;;;;;;;;;4.17;67.50;96348.28;5109683;28;19998;-73
2023/12/01 02:30:16;;;;;;;;;;;;;;;3.57;68.95;96351.34;5088066;28;19924;-73
2023/12/01 02:33:04;;;;;;;;;;;;;;;3.57;69.33;96348.66;5111452;27;20560;-73
2023/12/01 02:35:53;;;;;;;;;;;;;;;3.05;71.10;96355.47;5088596;28;19971;-73
2023/12/01 02:38:43;;;;;;;;;;;;;;;3.13;71.58;96358.22;5085695;28;19920;-74
2023/12/01 02:41:31;;;;;;;;;;;;;;;3.47;70.75;96356.16;5088566;28;20472;-74
2023/12/01 02:44:19;;;;;;;;;;;;;;;3.60;70.40;96364.16;5086928;28;20277;-75
2023/12/01 02:47:09;;;;;;;;;;;;;;;3.73;70.11;96369.78;5084160;28;19936;-72
2023/12/01 02:49:57;;;;;;;;;;;;;;;3.79;69.41;96379.31;5085953;28;19932;-73
2023/12/01 02:52:46;;;;;;;;;;;;;;;3.82;69.64;96384.06;5107118;27;19928;-73
2023/12/01 02:55:35;;;;;;;;;;;;;;;3.61;69.76;96373.00;5082033;28;19920;-73
2023/12/01 02:58:24;;;;;;;;;;;;;;;3.73;69.86;96383.19;5089309;28;19927;-73
2023/12/01 03:01:12;;;;;;;;;;;;;;;3.79;69.47;96379.31;5087625;28;20020;-74
2023/12/01 03:04:01;;;;;;;;;;;;;;;3.83;68.98;96369.53;5087551;28;19924;-73
2023/12/01 03:06:51;;;;;;;;;;;;;;;3.67;70.08;96359.19;5082721;28;19927;-73
2023/12/01 03:09:39;;;;;;;;;;;;;;;3.49;70.67;96357.44;5087673;28;20273;-73
2023/12/01 03:12:28;;;;;;;;;;;;;;;3.70;69.90;96352.38;5088350;28;19927;-73
2023/12/01 03:15:19;;;;;;;;;;;;;;;3.69;69.84;96372.28;5092462;28;20041;-73
2023/12/01 03:18:07;;;;;;;;;;;;;;;3.88;69.34;96366.72;5085497;28;19932;-73
2023/12/01 03:20:59;;;;;;;;;;;;;;;3.58;70.54;96358.31;5081566;28;19920;-72
2023/12/01 03:23:49;;;;;;;;;;;;;;;3.30;71.33;96373.72;5083476;28;19951;-73
2023/12/01 03:26:37;;;;;;;;;;;;;;;3.56;70.79;96371.22;5088609;28;20021;-73
2023/12/01 03:29:27;;;;;;;;;;;;;;;3.51;70.86;96379.38;5086593;28;19920;-73
2023/12/01 03:32:16;;;;;;;;;;;;;;;3.85;69.81;96378.88;5099371;28;19932;-73
2023/12/01 03:35:04;;;;;;;;;;;;;;;3.83;70.13;96374.91;5100885;28;19958;-72
2023/12/01 03:37:55;;;;;;;;;;;;;;;4.01;69.56;96403.50;5117630;27;19924;-73
2023/12/01 03:40:44;;;;;;;;;;;;;;;4.14;68.75;96393.78;5101673;28;19931;-73
2023/12/01 03:43:33;;;;;;;;;;;;;;;3.50;70.53;96383.19;5086719;28;19931;-73
2023/12/01 03:46:22;;;;;;;;;;;;;;;3.73;69.96;96391.25;5110201;28;19919;-73
2023/12/01 03:49:10;;;;;;;;;;;;;;;3.20;72.05;96383.88;5108937;28;19924;-74
2023/12/01 03:51:58;;;;;;;;;;;;;;;3.56;70.89;96376.59;5104440;28;19942;-73
2023/12/01 03:54:47;;;;;;;;;;;;;;;3.34;71.43;96363.94;5103980;28;19977;-73
2023/12/01 03:57:35;;;;;;;;;;;;;;;3.17;72.45;96346.88;5092371;28;19920;-73
2023/12/01 04:00:23;;;;;;;;;;;;;;;3.34;72.11;96345.13;5090287;28;19926;-73
2023/12/01 04:03:12;;;;;;;;;;;;;;;3.58;71.17;96357.50;5108182;28;20011;-73
2023/12/01 04:06:01;;;;;;;;;;;;;;;3.67;70.63;96361.88;5109769;28;19981;-73
2023/12/01 04:08:53;;;;;;;;;;;;;;;3.84;70.00;96371.16;5119278;27;20617;-73
2023/12/01 04:11:42;;;;;;;;;;;;;;;3.87;69.92;96365.16;5104794;28;20002;-73
2023/12/01 04:14:30;;;;;;;;;;;;;;;3.20;71.67;96365.88;5111371;28;19928;-73
2023/12/01 04:17:21;;;;;;;;;;;;;;;3.33;71.99;96367.72;5110154;28;19928;-73
2023/12/01 04:20:20;;;;;;;;;;;;;;;3.21;71.98;96363.97;5118784;27;20049;-73
2023/12/01 04:23:11;;;;;;;;;;;;;;;3.60;71.04;96363.38;5106429;28;19920;-72
2023/12/01 04:26:00;;;;;;;;;;;;;;;3.79;69.89;96361.31;5105634;28;19924;-73
2023/12/01 04:28:48;;;;;;;;;;;;;;;3.87;69.82;96368.63;5099990;28;19923;-73
2023/12/01 04:31:36;;;;;;;;;;;;;;;3.67;69.88;96355.66;5100907;28;20284;-73
2023/12/01 04:34:26;;;;;;;;;;;;;;;3.64;70.38;96351.72;5106163;28;19926;-74
2023/12/01 04:37:15;;;;;;;;;;;;;;;3.61;70.87;96364.94;5109830;28;19924;-73
2023/12/01 04:40:13;;;;;;;;;;;;;;;3.80;70.63;96375.53;5105547;28;19963;-73
2023/12/01 04:43:04;;;;;;;;;;;;;;;3.73;70.64;96383.19;5111986;28;19919;-73
2023/12/01 04:45:52;;;;;;;;;;;;;;;3.97;69.83;96386.41;5108701;28;19930;-73
2023/12/01 04:48:40;;;;;;;;;;;;;;;4.02;69.41;96378.22;5103366;28;19984;-73
2023/12/01 04:51:28;;;;;;;;;;;;;;;3.91;69.84;96383.03;5109835;28;19920;-73
2023/12/01 04:54:17;;;;;;;;;;;;;;;3.62;70.38;96364.66;5107613;28;19920;-73
2023/12/01 04:57:05;;;;;;;;;;;;;;;3.33;71.97;96366.94;5107504;28;19920;-73
2023/12/01 04:59:56;;;;;;;;;;;;;;;3.59;71.46;96378.69;5112450;28;19927;-73
2023/12/01 05:02:44;;;;;;;;;;;;;;;3.78;70.73;96380.41;5108068;27;20369;-75
2023/12/01 05:05:33;;;;;;;;;;;;;;;3.82;70.44;96392.91;5101052;28;20011;-74
2023/12/01 05:08:21;;;;;;;;;;;;;;;4.01;69.88;96392.75;5114689;27;19935;-74
2023/12/01 05:11:14;;;;;;;;;;;;;;;4.12;69.10;96383.34;5117959;27;19931;-72
2023/12/01 05:14:08;;;;;;;;;;;;;;;3.66;70.77;96389.78;5113306;27;20057;-72
2023/12/01 05:16:56;;;;;;;;;;;;;;;3.96;70.04;96389.41;5092949;28;20300;-72
2023/12/01 05:19:44;;;;;;;;;;;;;;;4.13;69.50;96387.59;5115760;27;20049;-72
2023/12/01 05:22:32;;;;;;;;;;;;;;;3.94;69.65;96395.06;5111819;27;20000;-72
2023/12/01 05:25:21;;;;;;;;;;;;;;;4.05;69.67;96391.03;5110608;27;19924;-73
2023/12/01 05:28:10;;;;;;;;;;;;;;;3.66;70.62;96394.38;5086597;28;19932;-73
2023/12/01 05:30:58;;;;;;;;;;;;;;;4.07;69.91;96393.41;5103001;28;20379;-75
2023/12/01 05:33:47;;;;;;;;;;;;;;;4.30;69.11;96408.41;5111706;28;19920;-73
2023/12/01 05:36:41;;;;;;;;;;;;;;;4.11;69.21;96397.09;5105562;27;19923;-71
2023/12/01 05:39:30;;;;;;;;;;;;;;;3.81;69.64;96395.91;5108370;28;19920;-71
2023/12/01 05:42:18;;;;;;;;;;;;;;;4.09;69.52;96383.94;5106776;28;19970;-71
2023/12/01 05:45:11;;;;;;;;;;;;;;;3.76;70.18;96398.72;5107042;27;19962;-71
2023/12/01 05:47:59;;;;;;;;;;;;;;;3.88;69.93;96394.38;5092692;28;19935;-70
2023/12/01 05:50:47;;;;;;;;;;;;;;;4.02;69.22;96394.34;5110332;28;19920;-70
2023/12/01 05:53:35;;;;;;;;;;;;;;;4.10;68.97;96382.88;5107409;28;20273;-70
2023/12/01 05:56:23;;;;;;;;;;;;;;;3.90;69.73;96386.03;5103476;28;20023;-70
2023/12/01 05:59:11;;;;;;;;;;;;;;;4.12;69.45;96402.16;5105576;28;19938;-71
2023/12/01 06:02:03;;;;;;;;;;;;;;;4.11;68.74;96408.63;5107536;27;19969;-71
2023/12/01 06:04:53;;;;;;;;;;;;;;;3.88;69.65;96426.63;5104095;28;20285;-71
2023/12/01 06:07:43;;;;;;;;;;;;;;;3.88;69.73;96409.72;5103535;28;19924;-71
2023/12/01 06:10:32;;;;;;;;;;;;;;;3.75;70.14;96399.81;5105592;27;19932;-71
2023/12/01 06:13:21;;;;;;;;;;;;;;;3.77;69.72;96411.03;5107225;28;19924;-71
2023/12/01 06:16:09;;;;;;;;;;;;;;;3.88;69.60;96423.94;5103085;28;20561;-73
2023/12/01 06:18:58;;;;;;;;;;;;;;;3.76;69.93;96430.94;5106675;28;19932;-71
2023/12/01 06:21:48;;;;;;;;;;;;;;;3.44;70.52;96430.03;5106852;28;19919;-71
2023/12/01 06:24:35;;;;;;;;;;;;;;;3.26;71.73;96425.59;5118084;27;19973;-71
2023/12/01 06:27:23;;;;;;;;;;;;;;;3.24;71.61;96423.19;5093300;27;20351;-71
2023/12/01 06:30:14;;;;;;;;;;;;;;;3.09;72.76;96420.81;5092849;27;19927;-71
2023/12/01 06:33:02;;;;;;;;;;;;;;;3.34;71.68;96428.34;5104099;27;20365;-71
2023/12/01 06:35:55;;;;;;;;;;;;;;;3.58;71.21;96428.13;5109248;27;20373;-71
2023/12/01 06:38:46;;;;;;;;;;;;;;;3.60;71.10;96428.59;5099601;27;20014;-71
2023/12/01 06:41:34;;;;;;;;;;;;;;;3.24;72.01;96438.50;5108555;28;20388;-71
2023/12/01 06:44:23;;;;;;;;;;;;;;;3.27;72.32;96443.28;5107676;28;20292;-72
2023/12/01 06:47:11;;;;;;;;;;;;;;;3.51;71.69;96443.84;5108371;27;19930;-71
2023/12/01 06:49:59;;;;;;;;;;;;;;;3.74;70.38;96441.22;5107832;28;19920;-71
2023/12/01 06:52:53;;;;;;;;;;;;;;;3.82;69.95;96445.84;5106288;27;19923;-71
2023/12/01 06:55:41;;;;;;;;;;;;;;;3.78;69.88;96463.66;5104222;27;20395;-71
2023/12/01 06:58:29;;;;;;;;;;;;;;;3.85;69.96;96464.06;5111005;27;19920;-72
2023/12/01 07:01:19;;;;;;;;;;;;;;;3.30;71.23;96454.22;5109372;27;19923;-71
2023/12/01 07:04:08;;;;;;;;;;;;;;;3.24;71.72;96450.03;5106060;27;19942;-71
2023/12/01 07:07:00;;;;;;;;;;;;;;;3.06;72.59;96457.09;5109642;28;20332;-71
2023/12/01 07:09:50;;;;;;;;;;;;;;;3.21;72.41;96463.28;5107549;27;19920;-71
2023/12/01 07:12:45;;;;;;;;;;;;;;;3.30;71.91;96467.66;5103075;27;19926;-71
2023/12/01 07:15:33;;;;;;;;;;;;;;;3.04;72.50;96471.94;5110119;28;20400;-71
2023/12/01 07:18:21;;;;;;;;;;;;;;;3.07;72.60;96477.47;5089716;28;20410;-71
2023/12/01 07:21:09;;;;;;;;;;;;;;;3.07;72.57;96479.38;5106928;28;19944;-71
2023/12/01 07:24:01;;;;;;;;;;;;;;;3.22;72.17;96483.66;5120912;27;20487;-71
2023/12/01 07:26:52;;;;;;;;;;;;;;;3.38;72.03;96498.34;5100481;28;19920;-72
2023/12/01 07:29:40;;;;;;;;;;;;;;;3.45;71.44;96493.38;5098746;27;19932;-75
2023/12/01 07:32:28;;;;;;;;;;;;;;;3.50;71.14;96492.47;5109105;28;19926;-73
2023/12/01 07:35:16;;;;;;;;;;;;;;;3.05;72.87;96495.78;5117195;28;19931;-75
2023/12/01 07:38:05;;;;;;;;;;;;;;;3.05;72.81;96490.41;5110623;28;20285;-71
2023/12/01 07:40:53;;;;;;;;;;;;;;;3.18;72.38;96482.66;5098248;28;19935;-71
2023/12/01 07:43:42;;;;;;;;;;;;;;;3.26;71.98;96490.00;5106216;28;19959;-71
2023/12/01 07:46:32;;;;;;;;;;;;;;;3.23;72.36;96495.97;5088994;28;19963;-71
2023/12/01 07:49:21;;;;;;;;;;;;;;;3.31;72.22;96504.13;5106831;28;20525;-71
2023/12/01 07:52:12;;;;;;;;;;;;;;;3.33;72.10;96501.94;5089103;28;20016;-71
2023/12/01 07:55:00;;;;;;;;;;;;;;;3.27;72.13;96505.81;5103428;28;19965;-71
2023/12/01 07:57:48;;;;;;;;;;;;;;;3.34;72.24;96502.72;5103888;28;20001;-71
2023/12/01 08:00:40;;;;;;;;;;;;;;;3.30;72.06;96485.63;5104954;28;19927;-71
2023/12/01 08:03:28;;;;;;;;;;;;;;;3.22;72.39;96484.44;5099570;28;20723;-71
2023/12/01 08:06:16;;;;;;;;;;;;;;;3.17;72.34;96486.44;5108967;28;20000;-71
2023/12/01 08:09:05;;;;;;;;;;;;;;;3.31;71.90;96493.41;5106609;28;19919;-71
2023/12/01 08:11:53;;;;;;;;;;;;;;;3.40;71.55;96491.56;5090189;28;20026;-71
2023/12/01 08:14:43;;;;;;;;;;;;;;;3.14;72.16;96483.25;5102352;28;19938;-71
2023/12/01 08:17:32;;;;;;;;;;;;;;;3.13;72.88;96491.59;5094751;28;19926;-73
2023/12/01 08:20:21;;;;;;;;;;;;;;;3.37;72.10;96496.78;5098466;28;19924;-71
2023/12/01 08:23:09;;;;;;;;;;;;;;;3.33;72.38;96506.50;5106640;28;20028;-72
2023/12/01 08:25:57;;;;;;;;;;;;;;;3.24;72.56;96502.91;5099701;28;20019;-71
2023/12/01 08:28:45;;;;;;;;;;;;;;;3.43;72.22;96506.31;5087511;28;19928;-71
2023/12/01 08:31:34;;;;;;;;;;;;;;;3.37;71.68;96510.19;5103449;28;19930;-71
2023/12/01 08:34:23;;;;;;;;;;;;;;;3.33;72.05;96509.19;5102604;28;20250;-72
2023/12/01 08:37:11;;;;;;;;;;;;;;;3.52;71.37;96523.31;5102544;28;19939;-71
2023/12/01 08:39:59;;;;;;;;;;;;;;;3.52;71.44;96512.56;5105372;28;20004;-71
2023/12/01 08:42:47;;;;;;;;;;;;;;;3.68;71.05;96524.59;5100913;28;19928;-71
2023/12/01 08:45:36;;;;;;;;;;;;;;;3.81;70.52;96512.22;5105981;28;19942;-68
2023/12/01 08:48:24;;;;;;;;;;;;;;;3.49;71.45;96505.09;5113261;28;19932;-71
2023/12/01 08:51:13;;;;;;;;;;;;;;;3.34;71.61;96500.03;5103638;27;19920;-72
2023/12/01 08:54:01;;;;;;;;;;;;;;;3.44;71.61;96497.16;5095040;28;19920;-71
2023/12/01 08:56:49;;;;;;;;;;;;;;;3.14;72.45;96504.72;5109624;28;19930;-71
2023/12/01 08:59:37;;;;;;;;;;;;;;;3.25;72.46;96504.50;5106308;28;19928;-71
2023/12/01 09:02:25;;;;;;;;;;;;;;;3.07;73.26;96508.88;5108136;28;20010;-72
2023/12/01 09:05:13;;;;;;;;;;;;;;;3.42;72.77;96513.56;5103634;28;20005;-71
2023/12/01 09:08:05;;;;;;;;;;;;;;;3.41;71.86;96516.56;5107799;28;19920;-72
2023/12/01 09:10:53;;;;;;;;;;;;;;;3.56;71.90;96512.75;5110168;27;19996;-71
2023/12/01 09:13:41;;;;;;;;;;;;;;;3.64;71.92;96528.97;5107307;28;20288;-71
2023/12/01 09:16:29;;;;;;;;;;;;;;;3.79;71.37;96535.13;5094346;28;19927;-71
2023/12/01 09:19:17;;;;;;;;;;;;;;;3.64;71.33;96544.28;5108742;27;20692;-71
2023/12/01 09:22:06;;;;;;;;;;;;;;;3.88;71.20;96544.84;5109026;28;19980;-72
2023/12/01 09:24:55;;;;;;;;;;;;;;;3.86;70.92;96540.88;5106316;27;20335;-71
2023/12/01 09:27:43;;;;;;;;;;;;;;;3.47;71.99;96526.09;5103249;28;20280;-72
2023/12/01 09:30:31;;;;;;;;;;;;;;;3.77;70.98;96532.72;5106338;28;19920;-72
2023/12/01 09:33:19;;;;;;;;;;;;;;;3.80;70.63;96544.75;5113002;28;19926;-72
2023/12/01 09:36:09;;;;;;;;;;;;;;;3.86;70.65;96548.94;5109628;28;19920;-72
2023/12/01 09:38:57;;;;;;;;;;;;;;;3.80;70.55;96542.09;5105085;27;19935;-72
2023/12/01 09:41:46;;;;;;;;;;;;;;;3.55;70.74;96524.59;5103968;28;19943;-72
2023/12/01 09:44:35;;;;;;;;;;;;;;;3.67;71.14;96519.50;5101795;28;19931;-72
2023/12/01 09:47:23;;;;;;;;;;;;;;;3.82;71.32;96529.13;5097094;27;20128;-72
2023/12/01 09:50:13;;;;;;;;;;;;;;;3.86;70.60;96533.59;5107082;28;19919;-72
2023/12/01 09:53:02;;;;;;;;;;;;;;;3.58;71.14;96524.00;5104768;28;19927;-72
2023/12/01 09:55:50;;;;;;;;;;;;;;;3.29;71.56;96527.78;5106924;28;20030;-72
2023/12/01 09:58:40;;;;;;;;;;;;;;;3.23;72.21;96528.16;5114259;27;19921;-74
2023/12/01 10:01:32;;;;;;;;;;;;;;;3.01;73.01;96532.31;5116948;27;19920;-73
2023/12/01 10:04:20;;;;;;;;;;;;;;;3.09;72.98;96518.25;5110472;27;20261;-70
2023/12/01 10:07:08;;;;;;;;;;;;;;;2.99;72.12;96513.06;5089860;28;19927;-70
2023/12/01 10:09:57;;;;;;;;;;;;;;;3.17;72.90;96494.47;5106156;27;19935;-70
2023/12/01 10:12:52;;;;;;;;;;;;;;;3.19;73.01;96511.06;5086883;28;19923;-70
2023/12/01 10:15:42;;;;;;;;;;;;;;;3.32;72.08;96516.44;5106200;27;20007;-72
2023/12/01 10:18:30;;;;;;;;;;;;;;;3.07;72.46;96508.88;5108003;27;20250;-69
2023/12/01 10:21:18;;;;;;;;;;;;;;;3.05;72.56;96503.81;5109033;28;20010;-70
2023/12/01 10:24:12;;;;;;;;;;;;;;;3.22;72.15;96502.44;5114460;27;19926;-70
2023/12/01 10:27:04;;;;;;;;;;;;;;;3.31;72.46;96492.59;5106096;28;19919;-72
2023/12/01 10:29:52;;;;;;;;;;;;;;;3.13;72.16;96503.13;5108284;28;19927;-72
2023/12/01 10:32:42;;;;;;;;;;;;;;;3.36;71.76;96505.91;5108889;27;19920;-72
2023/12/01 10:35:31;;;;;;;;;;;;;;;3.31;72.88;96517.56;5108681;28;19926;-70
2023/12/01 10:38:20;;;;;;;;;;;;;;;3.30;73.90;96517.81;5110151;28;19920;-70
2023/12/01 10:41:09;;;;;;;;;;;;;;;3.32;73.45;96531.75;5103417;28;19935;-70
2023/12/01 10:43:58;;;;;;;;;;;;;;;3.57;72.24;96533.94;5107447;28;19932;-73
2023/12/01 10:46:48;;;;;;;;;;;;;;;3.49;72.52;96507.78;5086206;28;19920;-73
2023/12/01 10:49:39;;;;;;;;;;;;;;;3.76;72.18;96504.28;5099035;28;20277;-72
2023/12/01 10:52:27;;;;;;;;;;;;;;;3.50;72.03;96506.69;5105690;27;19926;-70
2023/12/01 10:55:16;;;;;;;;;;;;;;;3.43;72.43;96500.94;5109268;28;20064;-71
2023/12/01 10:58:04;;;;;;;;;;;;;;;3.44;73.15;96509.78;5105282;27;19926;-71
2023/12/01 11:00:53;;;;;;;;;;;;;;;3.15;74.33;96516.25;5101795;28;19923;-70
2023/12/01 11:03:41;;;;;;;;;;;;;;;3.42;73.74;96510.09;5103252;27;19977;-71
2023/12/01 11:06:33;;;;;;;;;;;;;;;3.36;73.25;96500.56;5106013;28;19927;-71
2023/12/01 11:09:24;;;;;;;;;;;;;;;3.48;73.25;96500.84;5104632;27;19920;-71
2023/12/01 11:12:13;;;;;;;;;;;;;;;3.47;73.13;96488.50;5105763;28;19919;-70
2023/12/01 11:15:05;;;;;;;;;;;;;;;3.41;73.16;96487.03;5100945;27;19920;-71
2023/12/01 11:17:52;;;;;;;;;;;;;;;3.25;73.21;96483.84;5102813;27;19938;-71
2023/12/01 11:20:44;;;;;;;;;;;;;;;3.40;73.04;96490.78;5102088;27;19932;-71
2023/12/01 11:23:36;;;;;;;;;;;;;;;3.42;73.52;96489.41;5092854;27;19920;-71
2023/12/01 11:26:26;;;;;;;;;;;;;;;3.44;73.38;96491.78;5101357;28;20329;-71
2023/12/01 11:29:28;;;;;;;;;;;;;;;3.55;72.72;96487.78;5086463;28;20289;-71
2023/12/01 11:32:19;;;;;;;;;;;;;;;3.57;72.39;96482.94;5102023;28;20268;-71
2023/12/01 11:35:10;;;;;;;;;;;;;;;3.32;73.56;96470.03;5104036;27;21289;-71
2023/12/01 11:38:03;;;;;;;;;;;;;;;3.05;74.59;96468.94;5105084;28;19938;-72
2023/12/01 11:40:52;;;;;;;;;;;;;;;3.22;74.04;96462.19;5103357;28;20487;-71
2023/12/01 11:43:40;;;;;;;;;;;;;;;3.21;73.86;96476.69;5106248;28;19919;-71
2023/12/01 11:46:28;;;;;;;;;;;;;;;3.34;73.37;96483.94;5100185;28;19943;-71
2023/12/01 11:49:17;;;;;;;;;;;;;;;3.34;73.07;96481.25;5105175;28;19928;-71
2023/12/01 11:52:05;;;;;;;;;;;;;;;3.25;73.71;96491.91;5104988;28;20378;-72
2023/12/01 11:54:53;;;;;;;;;;;;;;;3.30;73.39;96497.19;5104409;28;19928;-71
2023/12/01 11:57:43;;;;;;;;;;;;;;;3.23;73.55;96485.22;5103241;28;19959;-71
2023/12/01 12:00:34;;;;;;;;;;;;;;;3.45;73.06;96463.84;5105451;28;19962;-71
2023/12/01 12:03:22;;;;;;;;;;;;;;;3.19;73.58;96471.59;5102438;28;19928;-71
2023/12/01 12:06:11;;;;;;;;;;;;;;;3.26;73.56;96473.91;5105886;28;19973;-71
2023/12/01 12:09:01;;;;;;;;;;;;;;;3.34;73.33;96470.50;5104387;28;19928;-71
2023/12/01 12:11:50;;;;;;;;;;;;;;;3.28;73.55;96467.13;5107229;28;19926;-71
2023/12/01 12:14:40;;;;;;;;;;;;;;;3.31;73.39;96471.13;5105379;28;19927;-71
2023/12/01 12:17:28;;;;;;;;;;;;;;;3.11;74.47;96489.22;5105828;28;19920;-71
2023/12/01 12:20:22;;;;;;;;;;;;;;;3.06;74.81;96492.00;5092674;28;20383;-72
2023/12/01 12:23:14;;;;;;;;;;;;;;;3.16;73.91;96491.00;5090429;28;19959;-73
2023/12/01 12:26:15;;;;;;;;;;;;;;;3.19;74.25;96484.22;5108558;27;19919;-72
2023/12/01 12:29:04;;;;;;;;;;;;;;;3.29;74.02;96471.41;5112751;28;19941;-73
2023/12/01 12:31:53;;;;;;;;;;;;;;;3.20;73.84;96469.75;5102110;28;20006;-73
2023/12/01 12:34:47;;;;;;;;;;;;;;;3.09;74.53;96458.38;5109051;28;19919;-72
2023/12/01 12:37:37;;;;;;;;;;;;;;;3.37;73.78;96469.94;5106049;28;19977;-72
2023/12/01 12:40:25;;;;;;;;;;;;;;;3.11;74.15;96475.78;5109120;28;20606;-72
2023/12/01 12:43:13;;;;;;;;;;;;;;;3.07;74.36;96501.63;5107856;28;19932;-72
2023/12/01 12:46:04;;;;;;;;;;;;;;;3.11;74.61;96493.78;5105718;28;19924;-71
2023/12/01 12:48:57;;;;;;;;;;;;;;;3.20;74.49;96500.06;5094198;28;20000;-72
2023/12/01 12:51:45;;;;;;;;;;;;;;;3.10;74.71;96498.34;5109589;27;19932;-72
2023/12/01 12:54:33;;;;;;;;;;;;;;;3.25;74.85;96499.13;5106681;28;19920;-72
2023/12/01 12:57:21;;;;;;;;;;;;;;;3.32;74.12;96502.25;5107804;27;20387;-72
2023/12/01 13:00:10;;;;;;;;;;;;;;;3.30;73.59;96493.66;5110956;27;19919;-72
2023/12/01 13:02:59;;;;;;;;;;;;;;;3.12;74.54;96500.72;5110899;27;19924;-72
2023/12/01 13:05:48;;;;;;;;;;;;;;;3.12;73.89;96498.84;5105490;28;19927;-72
2023/12/01 13:08:37;;;;;;;;;;;;;;;3.17;74.17;96497.16;5109658;27;20010;-72
2023/12/01 13:11:25;;;;;;;;;;;;;;;3.13;74.16;96487.00;5110091;27;19926;-72
2023/12/01 13:14:15;;;;;;;;;;;;;;;3.08;74.13;96489.78;5112764;27;19920;-72
2023/12/01 13:17:03;;;;;;;;;;;;;;;3.21;74.02;96482.06;5111944;27;19942;-72
2023/12/01 13:19:52;;;;;;;;;;;;;;;3.21;73.33;96488.22;5101405;28;19932;-72
2023/12/01 13:22:41;;;;;;;;;;;;;;;3.22;73.99;96489.00;5099659;27;19924;-72
2023/12/01 13:25:29;;;;;;;;;;;;;;;3.28;74.11;96493.97;5104365;27;20377;-72
2023/12/01 13:28:19;;;;;;;;;;;;;;;3.13;74.02;96503.13;5107951;27;19959;-72
2023/12/01 13:31:08;;;;;;;;;;;;;;;3.05;74.67;96500.34;5104357;27;19973;-72
2023/12/01 13:33:56;;;;;;;;;;;;;;;3.04;74.78;96509.50;5109384;28;20088;-72
2023/12/01 13:36:45;;;;;;;;;;;;;;;3.22;74.13;96515.84;5109847;27;19919;-72
2023/12/01 13:39:37;;;;;;;;;;;;;;;3.11;74.19;96513.34;5109611;27;19920;-73
2023/12/01 13:42:29;;;;;;;;;;;;;;;3.22;73.96;96518.53;5111418;27;20304;-72
2023/12/01 13:45:18;;;;;;;;;;;;;;;3.38;73.61;96509.09;5103590;27;20285;-72
2023/12/01 13:48:06;;;;;;;;;;;;;;;3.35;72.96;96507.78;5110251;27;19920;-73
2023/12/01 13:50:54;;;;;;;;;;;;;;;3.39;73.02;96505.31;5108596;27;19924;-72
2023/12/01 13:53:44;;;;;;;;;;;;;;;3.45;72.98;96490.69;5099562;27;19919;-72
2023/12/01 13:56:33;;;;;;;;;;;;;;;3.48;72.69;96500.84;5108022;27;19954;-73
2023/12/01 13:59:21;;;;;;;;;;;;;;;3.48;72.71;96495.47;5101727;27;19919;-72
2023/12/01 14:02:09;;;;;;;;;;;;;;;3.47;72.53;96490.41;5108190;27;19951;-72
2023/12/01 14:04:57;;;;;;;;;;;;;;;3.34;72.37;96497.34;5107234;27;19927;-73
2023/12/01 14:07:45;;;;;;;;;;;;;;;3.25;72.38;96493.78;5114112;27;19919;-72
2023/12/01 14:10:33;;;;;;;;;;;;;;;3.27;73.02;96496.97;5099090;27;19939;-73
2023/12/01 14:13:23;;;;;;;;;;;;;;;3.40;72.36;96501.53;5091847;28;19930;-73
2023/12/01 14:16:11;;;;;;;;;;;;;;;3.35;72.04;96504.31;5111440;27;19920;-73
2023/12/01 14:18:59;;;;;;;;;;;;;;;3.03;72.62;96515.91;5111681;27;19927;-72
2023/12/01 14:21:49;;;;;;;;;;;;;;;2.92;73.16;96519.88;5110078;27;19927;-72
2023/12/01 14:24:37;;;;;;;;;;;;;;;2.77;74.29;96515.59;5111924;27;19927;-72
2023/12/01 14:27:25;;;;;;;;;;;;;;;2.72;74.49;96513.81;5085104;28;20382;-72
2023/12/01 14:30:15;;;;;;;;;;;;;;;2.73;74.82;96510.03;5087855;28;20382;-72
2023/12/01 14:33:03;;;;;;;;;;;;;;;2.53;75.10;96527.25;5091780;28;19920;-72
2023/12/01 14:35:53;;;;;;;;;;;;;;;2.43;76.45;96538.13;5100813;28;19969;-72
2023/12/01 14:38:46;;;;;;;;;;;;;;;2.46;76.37;96524.16;5091265;28;19926;-70
2023/12/01 14:41:34;;;;;;;;;;;;;;;2.58;75.77;96524.50;5088774;28;20288;-72
2023/12/01 14:44:22;;;;;;;;;;;;;;;2.83;75.05;96530.53;5091872;28;20015;-73
2023/12/01 14:47:12;;;;;;;;;;;;;;;2.66;74.93;96541.78;5095781;28;19946;-72
2023/12/01 14:50:01;;;;;;;;;;;;;;;2.79;74.62;96540.25;5096123;28;19920;-72
2023/12/01 14:52:51;;;;;;;;;;;;;;;2.97;74.13;96541.25;5084649;28;19924;-73